createdAt,value
2018-11-03T00:01:11.798Z,11.57
2018-11-03T00:03:41.374Z,11.68
2018-11-03T00:06:10.719Z,13.75
2018-11-03T00:08:43.674Z,5.97
2018-11-03T00:11:12.985Z,9.20
2018-11-03T00:13:42.285Z,11.68
2018-11-03T00:16:11.517Z,12.28
2018-11-03T00:18:40.893Z,8.38
2018-11-03T00:21:10.136Z,16.70
2018-11-03T00:23:39.330Z,11.05
2018-11-03T00:26:08.613Z,16.00
2018-11-03T00:28:39.008Z,11.30
2018-11-03T00:31:08.218Z,10.10
2018-11-03T00:33:37.532Z,8.25
2018-11-03T00:36:06.901Z,8.25
2018-11-03T00:38:36.261Z,7.28
2018-11-03T00:41:05.576Z,11.80
2018-11-03T00:43:34.798Z,19.80
2018-11-03T00:46:05.157Z,8.88
2018-11-03T00:48:34.564Z,24.80
2018-11-03T00:51:03.782Z,24.40
2018-11-03T00:53:32.978Z,8.78
2018-11-03T00:56:02.279Z,12.93
2018-11-03T00:58:31.558Z,14.38
2018-11-03T01:01:00.765Z,16.10
2018-11-03T01:03:30.049Z,11.55
2018-11-03T01:05:59.303Z,12.50
2018-11-03T01:08:30.608Z,11.20
2018-11-03T01:10:59.946Z,11.28
2018-11-03T01:13:29.191Z,14.18
2018-11-03T01:15:58.396Z,11.40
2018-11-03T01:18:27.705Z,14.13
2018-11-03T01:20:56.997Z,11.43
2018-11-03T01:23:26.176Z,13.53
2018-11-03T01:25:55.573Z,9.43
2018-11-03T01:28:24.877Z,13.38
2018-11-03T01:30:54.189Z,12.45
2018-11-03T01:33:23.411Z,14.28
2018-11-03T01:35:52.605Z,14.35
2018-11-03T01:38:21.901Z,20.35
2018-11-03T01:40:51.166Z,19.90
2018-11-03T01:43:20.370Z,18.67
2018-11-03T01:45:49.688Z,13.20
2018-11-03T01:48:19.110Z,13.65
2018-11-03T01:50:48.349Z,16.35
2018-11-03T01:53:17.544Z,17.10
2018-11-03T01:55:46.837Z,14.25
2018-11-03T01:58:16.074Z,21.07
2018-11-03T02:00:45.273Z,15.88
2018-11-03T02:03:14.509Z,19.48
2018-11-03T02:05:43.766Z,14.55
2018-11-03T02:08:13.090Z,22.30
2018-11-03T02:10:42.293Z,42.98
2018-11-03T02:13:11.511Z,17.62
2018-11-03T02:15:40.719Z,15.53
2018-11-03T02:18:09.998Z,22.58
2018-11-03T02:20:39.220Z,22.45
2018-11-03T02:23:08.454Z,20.68
2018-11-03T02:25:37.833Z,16.65
2018-11-03T02:28:07.382Z,14.70
2018-11-03T02:30:36.605Z,17.42
2018-11-03T02:33:05.852Z,16.55
2018-11-03T02:35:36.105Z,17.00
2018-11-03T02:38:05.438Z,15.20
2018-11-03T02:40:34.741Z,16.93
2018-11-03T02:43:04.014Z,23.57
2018-11-03T02:45:33.227Z,14.78
2018-11-03T02:50:42.400Z,14.03
2018-11-03T02:53:11.650Z,16.00
2018-11-03T02:55:40.997Z,16.95
2018-11-03T02:58:10.292Z,20.35
2018-11-03T03:00:39.530Z,22.52
2018-11-03T03:03:08.738Z,14.55
2018-11-03T03:05:37.938Z,18.87
2018-11-03T03:08:07.297Z,19.75
2018-11-03T03:10:36.648Z,21.25
2018-11-03T03:13:05.809Z,16.45
2018-11-03T03:15:36.511Z,17.77
2018-11-03T03:18:05.891Z,20.75
2018-11-03T03:20:35.110Z,20.57
2018-11-03T03:23:04.841Z,21.05
2018-11-03T03:25:34.053Z,25.52
2018-11-03T03:28:03.317Z,18.52
2018-11-03T03:30:32.547Z,20.68
2018-11-03T03:33:01.735Z,23.45
2018-11-03T03:35:31.007Z,21.00
2018-11-03T03:38:00.314Z,18.92
2018-11-03T03:40:29.613Z,23.92
2018-11-03T03:42:58.849Z,19.92
2018-11-03T03:45:28.119Z,18.15
2018-11-03T03:47:57.403Z,29.92
2018-11-03T03:50:26.636Z,22.80
2018-11-03T03:52:55.930Z,22.10
2018-11-03T03:55:26.225Z,20.60
2018-11-03T03:57:55.667Z,31.57
2018-11-03T04:00:24.933Z,20.35
2018-11-03T04:02:54.159Z,20.50
2018-11-03T04:05:23.417Z,18.95
2018-11-03T04:07:52.738Z,18.92
2018-11-03T04:10:22.051Z,32.35
2018-11-03T04:12:51.402Z,26.62
2018-11-03T04:15:20.744Z,26.93
2018-11-03T04:17:50.010Z,23.22
2018-11-03T04:20:19.261Z,20.85
2018-11-03T04:22:48.529Z,19.00
2018-11-03T04:25:18.145Z,25.25
2018-11-03T04:27:47.487Z,20.23
2018-11-03T04:30:16.730Z,21.50
2018-11-03T04:32:45.931Z,35.28
2018-11-03T04:35:15.438Z,23.52
2018-11-03T04:37:44.734Z,19.75
2018-11-03T04:40:14.027Z,20.43
2018-11-03T04:42:43.270Z,23.30
2018-11-03T04:45:12.980Z,15.60
2018-11-03T04:47:43.155Z,19.05
2018-11-03T04:50:12.498Z,19.90
2018-11-03T04:52:41.686Z,23.32
2018-11-03T04:55:11.100Z,21.80
2018-11-03T04:57:40.480Z,23.18
2018-11-03T05:00:10.303Z,24.67
2018-11-03T05:02:39.626Z,19.48
2018-11-03T05:05:08.859Z,30.70
2018-11-03T05:07:38.099Z,28.57
2018-11-03T05:10:08.523Z,19.73
2018-11-03T05:12:39.790Z,21.35
2018-11-03T05:15:13.152Z,19.27
2018-11-03T05:17:42.396Z,20.88
2018-11-03T05:20:11.578Z,23.62
2018-11-03T05:22:40.816Z,24.60
2018-11-03T05:25:10.075Z,24.23
2018-11-03T05:27:39.386Z,27.00
2018-11-03T05:30:08.855Z,23.18
2018-11-03T05:32:38.462Z,25.60
2018-11-03T05:35:07.694Z,27.48
2018-11-03T05:37:36.934Z,20.88
2018-11-03T05:40:08.274Z,26.48
2018-11-03T05:42:37.492Z,20.80
2018-11-03T05:45:06.806Z,23.85
2018-11-03T05:47:36.125Z,25.08
2018-11-03T05:50:06.945Z,22.42
2018-11-03T05:52:36.225Z,21.30
2018-11-03T05:55:08.099Z,20.62
2018-11-03T05:57:37.387Z,22.25
2018-11-03T06:00:08.283Z,26.90
2018-11-03T06:02:37.503Z,30.48
2018-11-03T06:05:06.850Z,19.92
2018-11-03T06:07:36.154Z,28.25
2018-11-03T06:10:07.082Z,23.38
2018-11-03T06:12:36.307Z,26.75
2018-11-03T06:15:05.584Z,28.92
2018-11-03T06:17:34.877Z,24.30
2018-11-03T06:20:04.187Z,24.15
2018-11-03T06:22:33.352Z,26.95
2018-11-03T06:25:02.567Z,25.32
2018-11-03T06:27:34.622Z,29.35
2018-11-03T06:30:03.891Z,27.07
2018-11-03T06:32:33.084Z,74.62
2018-11-03T06:35:02.738Z,25.57
2018-11-03T06:37:32.006Z,30.92
2018-11-03T06:40:02.328Z,23.87
2018-11-03T06:42:31.661Z,30.17
2018-11-03T06:45:00.874Z,25.72
2018-11-03T06:47:30.101Z,24.85
2018-11-03T06:49:59.413Z,26.80
2018-11-03T06:52:28.700Z,24.87
2018-11-03T06:54:57.990Z,22.02
2018-11-03T06:57:27.711Z,25.65
2018-11-03T06:59:57.048Z,22.52
2018-11-03T07:02:26.241Z,23.00
2018-11-03T07:04:55.562Z,23.65
2018-11-03T07:07:24.753Z,22.48
2018-11-03T07:09:53.993Z,24.05
2018-11-03T07:12:24.959Z,22.25
2018-11-03T07:14:54.068Z,32.42
2018-11-03T07:17:23.368Z,25.12
2018-11-03T07:19:53.201Z,18.62
2018-11-03T07:22:22.470Z,25.90
2018-11-03T07:24:52.087Z,28.60
2018-11-03T07:27:21.450Z,27.80
2018-11-03T07:29:50.856Z,23.98
2018-11-03T07:32:20.102Z,23.12
2018-11-03T07:34:49.477Z,28.52
2018-11-03T07:37:18.756Z,22.82
2018-11-03T07:39:48.051Z,31.15
2018-11-03T07:42:17.275Z,22.93
2018-11-03T07:44:46.582Z,19.82
2018-11-03T07:47:15.875Z,29.90
2018-11-03T07:49:45.288Z,21.48
2018-11-03T07:52:14.543Z,17.17
2018-11-03T07:54:43.849Z,18.73
2018-11-03T07:57:13.386Z,19.42
2018-11-03T07:59:42.693Z,23.27
2018-11-03T08:02:11.971Z,20.80
2018-11-03T08:04:41.333Z,20.17
2018-11-03T08:07:10.549Z,22.07
2018-11-03T08:09:39.899Z,19.67
2018-11-03T08:12:09.201Z,21.12
2018-11-03T08:14:38.499Z,23.83
2018-11-03T08:17:07.782Z,16.52
2018-11-03T08:19:37.533Z,14.87
2018-11-03T08:22:06.771Z,14.43
2018-11-03T08:24:36.094Z,13.50
2018-11-03T08:27:05.425Z,13.07
2018-11-03T08:29:34.670Z,13.90
2018-11-03T08:32:03.908Z,14.90
2018-11-03T08:34:34.065Z,13.20
2018-11-03T08:37:03.339Z,19.50
2018-11-03T08:39:32.564Z,17.87
2018-11-03T08:42:01.785Z,16.73
2018-11-03T08:44:31.113Z,21.37
2018-11-03T08:47:00.410Z,13.10
2018-11-03T08:49:29.757Z,13.00
2018-11-03T08:51:59.099Z,13.70
2018-11-03T08:54:28.266Z,14.73
2018-11-03T08:56:57.588Z,13.90
2018-11-03T08:59:26.830Z,12.10
2018-11-03T09:01:56.730Z,9.60
2018-11-03T09:04:27.197Z,8.27
2018-11-03T09:06:57.520Z,7.83
2018-11-03T09:09:26.797Z,11.50
2018-11-03T09:11:58.057Z,9.27
2018-11-03T09:14:28.569Z,12.47
2018-11-03T09:16:57.786Z,19.00
2018-11-03T09:19:29.019Z,8.80
2018-11-03T09:22:12.602Z,8.43
2018-11-03T09:24:41.809Z,11.07
2018-11-03T09:27:10.999Z,8.00
2018-11-03T09:29:40.221Z,12.33
2018-11-03T09:32:09.461Z,9.33
2018-11-03T09:34:38.794Z,7.00
2018-11-03T09:37:08.698Z,8.77
2018-11-03T09:39:37.990Z,10.10
2018-11-03T09:42:07.093Z,6.03
2018-11-03T09:44:36.339Z,11.10
2018-11-03T09:47:06.030Z,7.93
2018-11-03T09:49:35.210Z,10.87
2018-11-03T09:52:04.701Z,6.20
2018-11-03T09:54:33.932Z,8.63
2018-11-03T09:57:04.232Z,9.90
2018-11-03T09:59:34.378Z,7.03
2018-11-03T10:02:03.636Z,11.43
2018-11-03T10:04:32.903Z,8.70
2018-11-03T10:07:02.764Z,7.90
2018-11-03T10:09:31.958Z,9.50
2018-11-03T10:12:01.195Z,10.13
2018-11-03T10:14:31.281Z,8.43
2018-11-03T10:17:00.521Z,7.60
2018-11-03T10:19:29.835Z,8.70
2018-11-03T10:21:59.191Z,7.60
2018-11-03T10:24:31.210Z,6.67
2018-11-03T10:27:00.499Z,6.33
2018-11-03T10:29:29.835Z,20.80
2018-11-03T10:31:59.100Z,6.77
2018-11-03T10:34:29.127Z,8.13
2018-11-03T10:36:58.464Z,7.67
2018-11-03T10:39:27.686Z,5.30
2018-11-03T10:41:57.480Z,7.73
2018-11-03T10:44:26.740Z,5.53
2018-11-03T10:46:56.023Z,13.90
2018-11-03T10:49:25.502Z,6.40
2018-11-03T10:51:54.833Z,9.33
2018-11-03T10:54:24.051Z,10.93
2018-11-03T10:56:59.878Z,6.00
2018-11-03T10:59:29.077Z,14.07
2018-11-03T11:02:03.654Z,8.40
2018-11-03T11:04:38.209Z,7.03
2018-11-03T11:07:12.810Z,7.87
2018-11-03T11:09:47.303Z,7.40
2018-11-03T11:12:21.932Z,5.40
2018-11-03T11:14:51.173Z,7.03
2018-11-03T11:17:20.505Z,5.20
2018-11-03T11:19:49.857Z,13.90
2018-11-03T11:22:19.116Z,11.23
2018-11-03T11:24:48.429Z,8.67
2018-11-03T11:27:17.621Z,10.80
2018-11-03T11:29:46.875Z,7.17
2018-11-03T11:32:18.398Z,5.00
2018-11-03T11:34:47.810Z,6.07
2018-11-03T11:37:17.162Z,7.73
2018-11-03T11:39:46.367Z,7.93
2018-11-03T11:42:15.597Z,7.20
2018-11-03T11:44:44.906Z,9.23
2018-11-03T11:47:16.249Z,8.13
2018-11-03T11:49:45.503Z,4.00
2018-11-03T11:52:14.803Z,6.97
2018-11-03T11:54:45.100Z,8.53
2018-11-03T11:57:15.395Z,7.33
2018-11-03T11:59:44.726Z,5.40
2018-11-03T12:02:13.965Z,6.33
2018-11-03T12:04:43.531Z,6.73
2018-11-03T12:07:12.693Z,4.53
2018-11-03T12:09:41.959Z,6.23
2018-11-03T12:12:11.183Z,4.00
2018-11-03T12:14:40.390Z,6.23
2018-11-03T12:17:09.639Z,3.03
2018-11-03T12:19:38.861Z,8.97
2018-11-03T12:22:08.262Z,5.77
2018-11-03T12:24:37.522Z,7.37
2018-11-03T12:27:06.952Z,3.80
2018-11-03T12:29:36.217Z,5.10
2018-11-03T12:32:05.794Z,5.50
2018-11-03T12:34:35.185Z,3.90
2018-11-03T12:37:04.446Z,6.70
2018-11-03T12:39:33.905Z,4.90
2018-11-03T12:42:03.349Z,4.80
2018-11-03T12:44:33.140Z,3.17
2018-11-03T12:47:02.418Z,7.40
2018-11-03T12:49:31.705Z,11.37
2018-11-03T12:52:01.594Z,2.63
2018-11-03T12:54:31.135Z,2.60
2018-11-03T12:57:00.438Z,3.60
2018-11-03T12:59:29.840Z,3.57
2018-11-03T13:01:59.139Z,9.83
2018-11-03T13:04:28.529Z,5.33
2018-11-03T13:06:57.898Z,3.53
2018-11-03T13:09:27.215Z,3.13
2018-11-03T13:11:56.517Z,5.63
2018-11-03T13:14:25.786Z,8.47
2018-11-03T13:16:55.112Z,6.60
2018-11-03T13:19:24.366Z,5.17
2018-11-03T13:21:54.213Z,6.13
2018-11-03T13:24:23.431Z,4.60
2018-11-03T13:26:52.734Z,5.27
2018-11-03T13:29:22.278Z,5.57
2018-11-03T13:31:51.520Z,6.07
2018-11-03T13:34:20.740Z,3.80
2018-11-03T13:36:49.943Z,3.90
2018-11-03T13:39:19.143Z,5.77
2018-11-03T13:41:48.318Z,3.53
2018-11-03T13:44:17.645Z,4.97
2018-11-03T13:46:47.838Z,9.40
2018-11-03T13:49:17.215Z,13.83
2018-11-03T13:51:46.524Z,8.27
2018-11-03T13:54:15.725Z,4.87
2018-11-03T13:56:45.029Z,5.87
2018-11-03T13:59:14.218Z,4.93
2018-11-03T14:01:43.420Z,5.57
2018-11-03T14:04:13.352Z,4.07
2018-11-03T14:06:42.574Z,4.20
2018-11-03T14:09:11.957Z,3.80
2018-11-03T14:11:42.056Z,4.33
2018-11-03T14:14:11.564Z,3.63
2018-11-03T14:16:40.782Z,2.97
2018-11-03T14:19:11.073Z,2.87
2018-11-03T14:21:40.369Z,6.20
2018-11-03T14:24:09.674Z,4.23
2018-11-03T14:26:38.990Z,4.77
2018-11-03T14:29:08.248Z,7.63
2018-11-03T14:31:37.871Z,10.53
2018-11-03T14:34:07.706Z,3.70
2018-11-03T14:36:36.878Z,4.77
2018-11-03T14:39:07.765Z,3.50
2018-11-03T14:41:37.033Z,6.60
2018-11-03T14:44:06.224Z,4.70
2018-11-03T14:46:35.442Z,8.77
2018-11-03T14:49:04.779Z,9.33
2018-11-03T14:51:34.992Z,6.97
2018-11-03T14:54:04.390Z,6.03
2018-11-03T14:56:33.753Z,4.07
2018-11-03T14:59:02.959Z,4.97
2018-11-03T15:01:32.230Z,6.70
2018-11-03T15:04:03.541Z,4.40
2018-11-03T15:06:32.847Z,8.23
2018-11-03T15:09:03.306Z,10.83
2018-11-03T15:11:32.592Z,5.33
2018-11-03T15:14:02.051Z,7.07
2018-11-03T15:16:32.985Z,6.77
2018-11-03T15:19:02.371Z,5.93
2018-11-03T15:21:31.697Z,6.07
2018-11-03T15:24:00.927Z,7.93
2018-11-03T15:26:30.178Z,8.10
2018-11-03T15:28:59.624Z,6.17
2018-11-03T15:31:28.907Z,4.30
2018-11-03T15:33:58.165Z,10.70
2018-11-03T15:36:27.554Z,3.27
2018-11-03T15:38:56.857Z,5.53
2018-11-03T15:41:26.197Z,8.05
2018-11-03T15:43:56.134Z,5.87
2018-11-03T15:46:26.744Z,6.70
2018-11-03T15:48:57.054Z,11.53
2018-11-03T15:51:26.372Z,8.05
2018-11-03T15:53:55.616Z,8.35
2018-11-03T15:56:25.004Z,8.75
2018-11-03T15:58:54.402Z,14.58
2018-11-03T16:01:23.823Z,7.72
2018-11-03T16:03:53.030Z,7.40
2018-11-03T16:06:23.367Z,6.58
2018-11-03T16:08:52.658Z,7.12
2018-11-03T16:11:23.086Z,8.23
2018-11-03T16:13:53.300Z,8.35
2018-11-03T16:16:22.746Z,13.55
2018-11-03T16:18:52.183Z,11.22
2018-11-03T16:21:21.639Z,5.70
2018-11-03T16:23:50.996Z,6.70
2018-11-03T16:26:20.559Z,5.70
2018-11-03T16:28:49.852Z,3.33
2018-11-03T16:31:19.134Z,8.10
2018-11-03T16:33:48.456Z,9.05
2018-11-03T16:36:17.731Z,5.80
2018-11-03T16:38:46.927Z,9.38
2018-11-03T16:41:16.138Z,4.90
2018-11-03T16:43:45.434Z,10.50
2018-11-03T16:46:14.772Z,12.45
2018-11-03T16:48:44.026Z,5.80
2018-11-03T16:51:13.241Z,16.23
2018-11-03T16:53:42.530Z,22.95
2018-11-03T16:56:11.889Z,22.15
2018-11-03T16:58:42.309Z,20.30
2018-11-03T17:01:12.150Z,22.10
2018-11-03T17:03:41.465Z,16.45
2018-11-03T17:06:11.694Z,16.73
2018-11-03T17:08:41.040Z,28.55
2018-11-03T17:11:10.305Z,11.65
2018-11-03T17:13:39.481Z,16.17
2018-11-03T17:16:08.880Z,14.83
2018-11-03T17:18:38.274Z,13.25
2018-11-03T17:21:07.458Z,15.50
2018-11-03T17:23:36.783Z,13.03
2018-11-03T17:26:06.015Z,9.65
2018-11-03T17:28:35.386Z,12.95
2018-11-03T17:31:06.032Z,26.68
2018-11-03T17:33:35.355Z,10.13
2018-11-03T17:36:04.755Z,9.05
2018-11-03T17:38:34.045Z,11.15
2018-11-03T17:41:04.405Z,10.68
2018-11-03T17:43:34.696Z,17.85
2018-11-03T17:46:04.358Z,15.83
2018-11-03T17:48:33.594Z,11.45
2018-11-03T17:51:03.950Z,32.03
2018-11-03T17:53:33.167Z,30.25
2018-11-03T17:56:02.406Z,20.15
2018-11-03T17:58:31.661Z,33.92
2018-11-03T18:01:00.971Z,18.35
2018-11-03T18:03:30.144Z,32.98
2018-11-03T18:06:00.182Z,23.50
2018-11-03T18:08:30.162Z,15.78
2018-11-03T18:10:59.458Z,15.80
2018-11-03T18:13:28.879Z,13.15
2018-11-03T18:15:58.167Z,15.45
2018-11-03T18:18:27.358Z,18.27
2018-11-03T18:20:56.659Z,18.40
2018-11-03T18:23:25.887Z,13.83
2018-11-03T18:25:55.271Z,17.48
2018-11-03T18:28:24.511Z,23.55
2018-11-03T18:30:53.773Z,15.55
2018-11-03T18:33:23.021Z,12.88
2018-11-03T18:35:52.183Z,19.50
2018-11-03T18:38:21.683Z,12.70
2018-11-03T18:40:50.891Z,17.55
2018-11-03T18:43:22.748Z,19.12
2018-11-03T18:45:52.158Z,20.65
2018-11-03T18:48:22.561Z,15.85
2018-11-03T18:50:52.025Z,11.78
2018-11-03T18:53:21.274Z,18.12
2018-11-03T18:55:50.710Z,14.38
2018-11-03T18:58:20.163Z,13.32
2018-11-03T19:00:49.834Z,11.83
2018-11-03T19:03:21.158Z,13.80
2018-11-03T19:05:50.458Z,22.17
2018-11-03T19:08:19.739Z,13.00
2018-11-03T19:10:50.239Z,14.35
2018-11-03T19:13:19.554Z,11.48
2018-11-03T19:15:48.687Z,14.10
2018-11-03T19:18:17.958Z,13.45
2018-11-03T19:20:47.158Z,18.00
2018-11-03T19:23:16.536Z,14.18
2018-11-03T19:25:45.675Z,25.40
2018-11-03T19:28:14.914Z,14.98
2018-11-03T19:30:44.166Z,9.78
2018-11-03T19:33:13.422Z,14.60
2018-11-03T19:35:42.702Z,13.30
2018-11-03T19:38:11.925Z,15.40
2018-11-03T19:40:41.227Z,17.62
2018-11-03T19:43:10.527Z,19.37
2018-11-03T19:45:39.738Z,17.60
2018-11-03T19:48:09.045Z,16.60
2018-11-03T19:50:38.174Z,16.25
2018-11-03T19:53:07.734Z,34.03
2018-11-03T19:55:37.125Z,11.35
2018-11-03T19:58:06.664Z,17.27
2018-11-03T20:00:35.871Z,15.68
2018-11-03T20:03:05.553Z,15.55
2018-11-03T20:05:34.719Z,18.00
2018-11-03T20:08:03.977Z,22.35
2018-11-03T20:10:33.508Z,17.90
2018-11-03T20:13:02.726Z,18.65
2018-11-03T20:15:31.929Z,16.90
2018-11-03T20:18:02.497Z,18.35
2018-11-03T20:20:31.624Z,14.20
2018-11-03T20:23:00.846Z,18.40
2018-11-03T20:25:31.131Z,15.60
2018-11-03T20:28:00.411Z,16.73
2018-11-03T20:30:29.594Z,60.98
2018-11-03T20:32:58.919Z,30.00
2018-11-03T20:35:28.263Z,29.85
2018-11-03T20:37:58.509Z,18.20
2018-11-03T20:40:27.809Z,17.35
2018-11-03T20:42:57.094Z,13.20
2018-11-03T20:45:26.356Z,19.07
2018-11-03T20:47:55.754Z,12.98
2018-11-03T20:50:25.010Z,15.98
2018-11-03T20:52:54.331Z,18.75
2018-11-03T20:55:24.219Z,18.52
2018-11-03T20:57:53.474Z,15.78
2018-11-03T21:00:22.818Z,21.68
2018-11-03T21:02:52.070Z,12.80
2018-11-03T21:05:21.323Z,10.43
2018-11-03T21:07:51.307Z,13.72
2018-11-03T21:10:20.561Z,9.45
2018-11-03T21:12:49.882Z,10.85
2018-11-03T21:15:19.145Z,13.30
2018-11-03T21:17:49.562Z,14.90
2018-11-03T21:20:18.901Z,13.58
2018-11-03T21:22:50.118Z,17.65
2018-11-03T21:25:19.337Z,13.20
2018-11-03T21:27:49.051Z,17.57
2018-11-03T21:30:18.352Z,17.12
2018-11-03T21:32:47.551Z,14.13
2018-11-03T21:35:16.685Z,15.03
2018-11-03T21:37:46.052Z,11.95
2018-11-03T21:40:15.236Z,19.42
2018-11-03T21:42:45.507Z,18.05
2018-11-03T21:45:15.661Z,13.50
2018-11-03T21:47:44.905Z,10.48
2018-11-03T21:50:14.122Z,13.60
2018-11-03T21:52:43.418Z,22.25
2018-11-03T21:55:12.649Z,15.80
2018-11-03T21:57:41.853Z,11.30
2018-11-03T22:00:12.013Z,17.50
2018-11-03T22:02:41.794Z,23.50
2018-11-03T22:05:12.639Z,19.17
2018-11-03T22:07:42.672Z,17.57
2018-11-03T22:10:13.023Z,12.75
2018-11-03T22:12:44.173Z,14.23
2018-11-03T22:15:13.430Z,24.05
2018-11-03T22:17:42.643Z,16.62
2018-11-03T22:20:12.539Z,18.98
2018-11-03T22:22:41.753Z,13.90
2018-11-03T22:25:11.789Z,21.55
2018-11-03T22:27:41.019Z,12.37
2018-11-03T22:30:11.314Z,10.88
2018-11-03T22:32:40.829Z,12.55
2018-11-03T22:35:10.151Z,15.53
2018-11-03T22:37:39.411Z,16.25
2018-11-03T22:40:09.129Z,15.90
2018-11-03T22:42:39.393Z,13.25
2018-11-03T22:45:08.829Z,13.65
2018-11-03T22:47:37.991Z,19.77
2018-11-03T22:50:07.254Z,10.32
2018-11-03T22:52:36.521Z,10.68
2018-11-03T22:55:07.207Z,16.23
2018-11-03T22:57:36.566Z,13.70
2018-11-03T23:00:08.399Z,12.13
2018-11-03T23:02:37.709Z,11.43
2018-11-03T23:05:08.387Z,21.40
2018-11-03T23:07:37.697Z,38.73
2018-11-03T23:10:07.098Z,17.15
2018-11-03T23:12:36.756Z,14.85
2018-11-03T23:15:07.416Z,14.78
2018-11-03T23:17:36.863Z,15.40
2018-11-03T23:20:09.238Z,15.00
2018-11-03T23:22:39.066Z,15.05
2018-11-03T23:25:09.138Z,15.25
2018-11-03T23:27:38.483Z,23.65
2018-11-03T23:30:09.702Z,16.20
2018-11-03T23:32:39.215Z,20.08
2018-11-03T23:35:10.546Z,18.52
2018-11-03T23:37:39.908Z,24.30
2018-11-03T23:40:10.081Z,16.35
2018-11-03T23:42:39.441Z,23.85
2018-11-03T23:45:09.587Z,21.75
2018-11-03T23:47:39.158Z,20.23
2018-11-03T23:50:10.439Z,25.97
2018-11-03T23:52:43.632Z,28.73
2018-11-03T23:55:12.896Z,24.15
2018-11-03T23:57:42.281Z,19.30
